Time;durP1;ratioP1;P1;durP2;ratioP2;P2;SDS_P1;SDS_P2;PMS_P1;PMS_P2;Temp;Humidity;BMP_temperature;BMP_pressure;BME280_temperature;BME280_humidity;BME280_pressure;Samples;Min_cycle;Max_cycle;Signal;HPM_P1;HPM_P2
2023/08/07 00:00:44;;;;;;;0.53;0.53;;;;;;;13.57;73.92;96949.09;6206881;28;20246;-48
2023/08/07 00:03:47;;;;;;;2.17;0.60;;;;;;;13.78;70.27;96956.97;6205790;28;20243;-47
2023/08/07 00:06:49;;;;;;;0.87;0.50;;;;;;;13.75;71.79;96952.19;6202661;28;20243;-46
2023/08/07 00:09:51;;;;;;;3.70;0.47;;;;;;;13.77;71.77;96952.69;6206889;28;20237;-47
2023/08/07 00:12:54;;;;;;;0.80;0.40;;;;;;;13.67;72.76;96942.88;6189422;28;20637;-48
2023/08/07 00:15:56;;;;;;;0.57;0.47;;;;;;;13.55;75.29;96921.03;6205472;28;20329;-49
2023/08/07 00:18:58;;;;;;;1.80;0.40;;;;;;;13.80;70.46;96952.94;6205804;28;20311;-48
2023/08/07 00:22:01;;;;;;;1.17;0.47;;;;;;;13.76;71.72;96935.84;6205477;28;20783;-45
2023/08/07 00:25:03;;;;;;;0.40;0.40;;;;;;;13.72;70.95;96958.91;6204859;28;20612;-46
2023/08/07 00:28:05;;;;;;;0.57;0.50;;;;;;;13.57;71.49;96934.91;6203159;28;20344;-46
2023/08/07 00:31:08;;;;;;;0.50;0.40;;;;;;;13.82;69.59;96966.03;6200503;28;20549;-47
2023/08/07 00:34:10;;;;;;;0.70;0.60;;;;;;;13.72;70.65;96974.16;6196043;28;20244;-46
2023/08/07 00:37:12;;;;;;;1.13;0.50;;;;;;;13.72;72.43;96974.16;6205736;28;20789;-45
2023/08/07 00:40:15;;;;;;;1.63;0.47;;;;;;;13.72;72.73;96993.69;6205219;28;20772;-47
2023/08/07 00:43:17;;;;;;;0.87;0.40;;;;;;;13.66;72.13;97000.97;6188989;28;20713;-47
2023/08/07 00:46:20;;;;;;;0.90;0.57;;;;;;;13.71;72.36;96981.38;6201856;28;20780;-50
2023/08/07 00:49:22;;;;;;;1.07;0.50;;;;;;;13.71;72.17;96993.97;6205907;28;20228;-45
2023/08/07 00:52:25;;;;;;;0.70;0.50;;;;;;;13.79;72.40;97014.78;6204694;28;20324;-46
2023/08/07 00:55:28;;;;;;;0.30;0.30;;;;;;;13.66;70.81;96986.78;6183774;28;20228;-49
2023/08/07 00:58:32;;;;;;;0.80;0.40;;;;;;;13.72;71.17;97006.28;6188104;28;20233;-46
2023/08/07 01:01:36;;;;;;;0.83;0.63;;;;;;;13.71;70.27;96991.31;6205067;28;20286;-49
2023/08/07 01:04:38;;;;;;;0.50;0.50;;;;;;;13.70;71.06;96987.03;6193598;28;20235;-46
2023/08/07 01:07:40;;;;;;;1.30;0.57;;;;;;;13.74;69.83;97006.78;6204820;28;20236;-45
2023/08/07 01:11:01;;;;;;;0.80;0.50;;;;;;;13.90;68.10;96979.63;6204902;28;20247;-47
2023/08/07 01:14:23;;;;;;;0.87;0.43;;;;;;;13.91;67.76;96961.69;6203715;28;20232;-47
2023/08/07 01:17:26;;;;;;;0.60;0.50;;;;;;;13.81;70.52;97004.63;6196434;28;20232;-47
2023/08/07 01:20:29;;;;;;;0.83;0.60;;;;;;;13.97;67.35;96970.47;6205719;28;20249;-45
2023/08/07 01:23:31;;;;;;;0.70;0.70;;;;;;;13.77;70.33;96984.81;6204653;28;20232;-46
2023/08/07 01:26:37;;;;;;;2.40;0.90;;;;;;;13.68;69.96;96977.38;6194478;28;20657;-47
2023/08/07 01:30:04;;;;;;;2.63;0.90;;;;;;;13.59;72.51;96978.25;6205395;28;20695;-44
2023/08/07 01:33:22;;;;;;;2.80;0.60;;;;;;;13.77;69.92;96990.19;6182397;28;20237;-46
2023/08/07 01:36:30;;;;;;;2.73;0.70;;;;;;;13.68;69.85;96955.97;6175832;28;20604;-46
2023/08/07 01:39:34;;;;;;;0.80;0.60;;;;;;;13.66;68.35;96952.00;6203296;28;20243;-45
2023/08/07 01:42:37;;;;;;;2.77;0.57;;;;;;;13.71;70.91;96991.31;6204296;28;20239;-46
2023/08/07 01:45:39;;;;;;;1.90;0.70;;;;;;;13.52;68.53;96981.25;6204909;28;20390;-47
2023/08/07 01:48:42;;;;;;;0.80;0.50;;;;;;;13.42;67.41;96957.22;6187007;28;20252;-46
2023/08/07 01:51:44;;;;;;;3.73;0.87;;;;;;;13.49;69.91;96960.38;6204303;28;20232;-45
2023/08/07 01:54:47;;;;;;;1.17;0.77;;;;;;;13.54;71.40;97003.16;6185713;28;20243;-45
2023/08/07 01:57:49;;;;;;;1.20;0.80;;;;;;;13.55;68.88;96961.97;6185958;28;20281;-46
2023/08/07 02:00:52;;;;;;;0.73;0.60;;;;;;;13.59;68.99;97000.44;6186614;28;20247;-47
2023/08/07 02:03:55;;;;;;;1.30;0.80;;;;;;;13.66;68.96;96990.25;6182363;28;20775;-47
2023/08/07 02:07:00;;;;;;;1.40;0.60;;;;;;;13.82;65.77;97016.91;6202961;28;20318;-46
2023/08/07 02:10:04;;;;;;;1.67;0.70;;;;;;;13.77;67.74;97020.44;6194634;28;20598;-48
2023/08/07 02:13:07;;;;;;;2.37;0.73;;;;;;;13.68;67.93;97027.44;6204498;28;20240;-46
2023/08/07 02:16:11;;;;;;;0.87;0.70;;;;;;;13.56;68.25;97016.28;6200508;28;20240;-48
2023/08/07 02:19:14;;;;;;;1.97;0.80;;;;;;;13.59;70.35;97045.16;6203851;28;20596;-47
2023/08/07 02:22:18;;;;;;;0.90;0.50;;;;;;;13.65;66.84;96999.38;6205589;28;20300;-48
2023/08/07 02:25:23;;;;;;;1.40;0.70;;;;;;;13.54;68.69;97019.22;6209180;28;20227;-46
2023/08/07 02:28:25;;;;;;;1.10;0.70;;;;;;;13.45;72.04;97015.56;6201962;28;20338;-47
2023/08/07 02:31:27;;;;;;;3.10;1.00;;;;;;;13.26;68.98;96985.16;6203615;28;20236;-47
2023/08/07 02:34:30;;;;;;;1.20;0.63;;;;;;;13.38;69.93;97028.41;6202702;28;20240;-46
2023/08/07 02:37:33;;;;;;;0.60;0.60;;;;;;;13.29;72.80;97019.34;6181905;28;20236;-46
2023/08/07 02:40:35;;;;;;;1.37;0.87;;;;;;;13.33;68.67;97031.13;6204000;28;20237;-45
2023/08/07 02:43:37;;;;;;;1.60;0.70;;;;;;;13.55;66.94;97012.81;6209291;28;20237;-45
2023/08/07 02:46:40;;;;;;;0.57;0.57;;;;;;;13.43;69.22;97013.13;6186704;28;20319;-46
2023/08/07 02:49:42;;;;;;;0.70;0.70;;;;;;;13.42;68.85;97014.22;6205029;28;20243;-48
2023/08/07 02:52:44;;;;;;;3.13;0.50;;;;;;;13.35;68.56;97004.91;6203119;28;20232;-47
2023/08/07 02:55:47;;;;;;;1.00;0.60;;;;;;;13.24;70.54;96995.31;6206462;28;20251;-46
2023/08/07 02:58:49;;;;;;;2.13;0.57;;;;;;;13.33;67.74;97002.50;6167575;28;20236;-47
2023/08/07 03:01:51;;;;;;;0.60;0.50;;;;;;;13.38;67.76;97012.38;6207432;28;20707;-48
2023/08/07 03:04:54;;;;;;;1.27;0.70;;;;;;;13.23;71.74;97007.09;6207947;28;20232;-47
2023/08/07 03:07:56;;;;;;;2.33;0.63;;;;;;;13.24;69.08;97024.75;6186335;28;20240;-49
2023/08/07 03:10:58;;;;;;;1.17;0.60;;;;;;;13.17;68.93;97012.44;6204012;28;20235;-47
2023/08/07 03:14:01;;;;;;;0.90;0.60;;;;;;;13.41;68.26;97012.63;6189610;28;20710;-47
2023/08/07 03:17:04;;;;;;;0.50;0.50;;;;;;;13.31;70.36;97028.72;6208687;28;20232;-46
2023/08/07 03:20:06;;;;;;;1.50;0.60;;;;;;;13.24;69.71;97019.38;6208287;28;20228;-46
2023/08/07 03:23:09;;;;;;;0.57;0.47;;;;;;;13.11;71.73;97018.09;6199067;28;20240;-47
2023/08/07 03:26:13;;;;;;;0.50;0.50;;;;;;;13.10;68.07;96989.72;6203315;28;20366;-45
2023/08/07 03:29:18;;;;;;;2.13;0.50;;;;;;;13.20;70.31;97029.81;6206605;28;20232;-46
2023/08/07 03:32:21;;;;;;;3.40;0.70;;;;;;;13.17;67.28;96984.91;6190066;28;20228;-45
2023/08/07 03:35:23;;;;;;;1.00;0.60;;;;;;;13.17;67.72;97004.41;6214067;28;20345;-44
2023/08/07 03:38:27;;;;;;;0.50;0.50;;;;;;;13.22;68.88;96995.59;6205658;28;20244;-45
2023/08/07 03:41:31;;;;;;;1.20;0.70;;;;;;;13.18;68.50;97018.59;6195751;28;20602;-48
2023/08/07 03:44:34;;;;;;;1.03;0.60;;;;;;;13.29;67.06;97003.31;6198168;28;20236;-46
2023/08/07 03:47:36;;;;;;;0.67;0.60;;;;;;;13.10;69.56;96992.41;6206144;28;20702;-50
2023/08/07 03:50:39;;;;;;;1.10;0.57;;;;;;;13.13;70.85;97034.66;6206904;28;20239;-45
2023/08/07 03:53:41;;;;;;;2.20;0.63;;;;;;;12.99;69.95;97005.03;6188855;28;20233;-47
2023/08/07 03:56:44;;;;;;;0.83;0.53;;;;;;;12.99;69.93;97007.69;6186227;28;20323;-46
2023/08/07 03:59:46;;;;;;;0.70;0.50;;;;;;;13.13;69.57;97008.72;6183841;28;20232;-45
2023/08/07 04:02:49;;;;;;;0.53;0.53;;;;;;;13.14;68.70;97020.19;6183522;28;20291;-46
2023/08/07 04:05:55;;;;;;;0.40;0.30;;;;;;;13.07;70.19;97052.59;6182585;28;20248;-44
2023/08/07 04:08:58;;;;;;;0.97;0.37;;;;;;;13.16;69.23;97018.88;6164178;28;20232;-55
2023/08/07 04:12:01;;;;;;;0.57;0.50;;;;;;;13.10;70.68;97025.31;6183426;28;20263;-47
2023/08/07 04:15:03;;;;;;;2.83;0.40;;;;;;;13.23;67.54;97004.41;6182839;28;20348;-47
2023/08/07 04:18:05;;;;;;;2.37;0.73;;;;;;;13.31;66.92;97009.19;6179947;28;20225;-47
2023/08/07 04:21:08;;;;;;;0.77;0.40;;;;;;;13.23;66.62;97021.25;6184892;28;20229;-48
2023/08/07 04:24:11;;;;;;;1.77;0.50;;;;;;;13.18;67.89;97005.22;6183422;28;20295;-46
2023/08/07 04:27:13;;;;;;;0.20;0.20;;;;;;;13.12;68.43;97012.47;6195481;28;20241;-46
2023/08/07 04:30:16;;;;;;;0.50;0.40;;;;;;;13.18;67.83;97016.72;6188243;28;20236;-47
2023/08/07 04:33:19;;;;;;;0.80;0.30;;;;;;;13.13;68.86;97018.59;6189940;28;20264;-45
2023/08/07 04:36:21;;;;;;;0.30;0.30;;;;;;;13.30;66.40;97020.97;6183680;28;20726;-46
2023/08/07 04:39:24;;;;;;;0.40;0.30;;;;;;;13.09;69.59;96991.59;6181673;28;20303;-47
2023/08/07 04:42:26;;;;;;;0.40;0.30;;;;;;;13.11;68.54;96991.34;6182430;28;20795;-47
2023/08/07 04:45:28;;;;;;;0.60;0.30;;;;;;;13.17;67.65;96988.38;6181670;28;20264;-49
2023/08/07 04:48:31;;;;;;;0.30;0.27;;;;;;;13.16;67.64;97016.19;6181985;28;20235;-46
2023/08/07 04:51:33;;;;;;;0.30;0.30;;;;;;;13.06;67.82;96992.16;6177352;28;20263;-46
2023/08/07 04:54:35;;;;;;;0.23;0.23;;;;;;;12.97;66.97;96982.31;6198916;28;20240;-49
2023/08/07 04:57:37;;;;;;;0.50;0.30;;;;;;;13.15;67.48;97013.78;6211889;28;20629;-46
2023/08/07 05:00:40;;;;;;;0.40;0.40;;;;;;;12.86;71.10;97003.75;6205006;28;20243;-47
2023/08/07 05:03:42;;;;;;;0.30;0.30;;;;;;;12.75;69.08;97015.53;6195872;28;20783;-48
2023/08/07 05:06:45;;;;;;;0.43;0.30;;;;;;;12.71;69.33;97000.31;6204810;28;20777;-48
2023/08/07 05:09:49;;;;;;;1.70;0.23;;;;;;;12.88;69.68;97020.31;6205242;28;20228;-47
2023/08/07 05:12:57;;;;;;;1.80;0.37;;;;;;;12.69;70.39;97015.81;6204927;28;20279;-47
2023/08/07 05:15:59;;;;;;;0.33;0.27;;;;;;;12.64;72.55;97016.63;6203882;28;20274;-46
2023/08/07 05:19:02;;;;;;;0.40;0.27;;;;;;;12.79;68.72;97010.44;6203380;28;20995;-47
2023/08/07 05:22:04;;;;;;;0.33;0.20;;;;;;;12.78;68.51;97024.88;6204957;28;20229;-47
2023/08/07 05:25:09;;;;;;;1.43;0.23;;;;;;;12.88;67.55;97083.66;6204528;28;20236;-46
2023/08/07 05:28:11;;;;;;;0.43;0.20;;;;;;;12.96;66.18;97034.19;6200151;28;20232;-47
2023/08/07 05:31:13;;;;;;;0.20;0.20;;;;;;;12.94;67.71;97026.44;6204638;28;20231;-45
2023/08/07 05:34:15;;;;;;;0.23;0.20;;;;;;;13.08;65.33;97037.34;6184381;28;20319;-49
2023/08/07 05:37:18;;;;;;;0.73;0.20;;;;;;;13.10;65.95;97019.16;6204452;28;20239;-48
2023/08/07 05:40:20;;;;;;;1.80;0.30;;;;;;;13.05;67.04;97028.00;6204379;28;20229;-48
2023/08/07 05:43:23;;;;;;;0.47;0.20;;;;;;;13.05;65.09;97067.28;6200530;28;20789;-48
2023/08/07 05:46:25;;;;;;;2.10;0.27;;;;;;;13.10;64.38;97013.78;6204160;28;20251;-46
2023/08/07 05:49:27;;;;;;;0.30;0.20;;;;;;;12.98;65.64;97048.09;6204886;28;20232;-48
2023/08/07 05:52:30;;;;;;;0.10;0.10;;;;;;;12.89;65.77;97042.47;6203912;28;20244;-45
2023/08/07 05:55:32;;;;;;;2.53;0.30;;;;;;;12.83;66.90;97056.94;6203858;28;20710;-47
2023/08/07 05:58:34;;;;;;;0.17;0.17;;;;;;;12.83;67.33;97065.75;6203197;28;20228;-47
2023/08/07 06:01:36;;;;;;;0.10;0.10;;;;;;;12.71;66.93;97053.75;6203921;28;20236;-48
2023/08/07 06:04:40;;;;;;;0.10;0.10;;;;;;;12.53;69.82;97079.97;6203965;28;20243;-48
2023/08/07 06:07:43;;;;;;;1.17;0.20;;;;;;;12.69;69.08;97082.63;6187760;28;20263;-47
2023/08/07 06:10:45;;;;;;;0.37;0.10;;;;;;;12.57;68.90;97061.53;6203269;28;20607;-49
2023/08/07 06:13:48;;;;;;;0.10;0.10;;;;;;;12.51;69.08;97076.78;6202779;28;20231;-48
2023/08/07 06:16:51;;;;;;;0.20;0.20;;;;;;;12.52;67.29;97083.72;6199539;28;20582;-48
2023/08/07 06:19:54;;;;;;;0.20;0.20;;;;;;;12.53;68.69;97071.97;6203171;28;20240;-47
2023/08/07 06:22:56;;;;;;;0.10;0.10;;;;;;;12.47;67.11;97065.03;6207880;28;20236;-48
2023/08/07 06:25:58;;;;;;;0.10;0.10;;;;;;;12.36;67.33;97058.91;6203450;28;21096;-50
2023/08/07 06:29:00;;;;;;;0.73;0.10;;;;;;;12.51;68.07;97094.66;6184879;28;20277;-51
2023/08/07 06:32:03;;;;;;;0.10;0.10;;;;;;;12.80;64.49;97074.31;6203039;28;20246;-44
2023/08/07 06:35:06;;;;;;;0.17;0.10;;;;;;;12.72;65.94;97090.13;6206280;28;20294;-47
2023/08/07 06:38:08;;;;;;;0.10;0.10;;;;;;;12.28;67.52;97055.97;6203642;28;20227;-46
2023/08/07 06:41:10;;;;;;;0.40;0.27;;;;;;;12.75;64.75;97106.41;6208258;28;20228;-46
2023/08/07 06:44:16;;;;;;;0.53;0.20;;;;;;;12.85;64.69;97121.63;6203218;28;20770;-46
2023/08/07 06:47:21;;;;;;;1.30;0.13;;;;;;;12.80;66.79;97114.41;6201895;28;20224;-48
2023/08/07 06:50:24;;;;;;;0.20;0.20;;;;;;;12.91;64.53;97102.66;6202592;28;20232;-47
2023/08/07 06:53:27;;;;;;;1.33;0.20;;;;;;;12.97;65.08;97108.78;6199743;28;20228;-48
2023/08/07 06:56:29;;;;;;;0.73;0.20;;;;;;;13.01;65.19;97133.91;6205205;28;20239;-48
2023/08/07 06:59:31;;;;;;;0.43;0.13;;;;;;;13.07;64.79;97121.31;6196481;28;20236;-47
2023/08/07 07:02:34;;;;;;;2.53;0.20;;;;;;;13.09;64.42;97113.81;6175146;28;20363;-45
2023/08/07 07:05:38;;;;;;;0.10;0.10;;;;;;;13.03;64.58;97090.84;6202608;28;20297;-45
2023/08/07 07:08:40;;;;;;;0.40;0.20;;;;;;;13.13;63.61;97136.28;6203173;28;20228;-47
2023/08/07 07:11:43;;;;;;;0.73;0.30;;;;;;;13.15;63.86;97137.63;6185780;28;20232;-49
2023/08/07 07:14:46;;;;;;;0.20;0.20;;;;;;;13.24;63.55;97103.09;6194849;28;20382;-44
2023/08/07 07:17:48;;;;;;;0.77;0.30;;;;;;;13.09;64.75;97117.28;6203293;28;20239;-45
2023/08/07 07:21:00;;;;;;;3.90;0.30;;;;;;;12.93;65.36;97118.41;6203335;28;20786;-47
2023/08/07 07:24:03;;;;;;;0.30;0.30;;;;;;;13.09;64.45;97162.75;6202065;28;20319;-48
2023/08/07 07:27:05;;;;;;;1.03;0.30;;;;;;;13.10;63.04;97142.16;6201293;28;20224;-46
2023/08/07 07:30:08;;;;;;;3.30;0.40;;;;;;;12.97;63.89;97140.88;6202961;28;20566;-47
2023/08/07 07:33:10;;;;;;;0.60;0.30;;;;;;;12.90;65.41;97172.41;6204020;28;20251;-48
2023/08/07 07:36:17;;;;;;;0.20;0.20;;;;;;;12.98;63.61;97181.75;6178351;28;20633;-50
2023/08/07 07:39:20;;;;;;;0.93;0.30;;;;;;;13.00;64.64;97175.06;6204727;28;20212;-48
2023/08/07 07:42:22;;;;;;;0.50;0.20;;;;;;;12.90;66.42;97156.34;6207204;28;20233;-48
2023/08/07 07:45:25;;;;;;;0.60;0.30;;;;;;;12.88;66.51;97155.84;6207162;28;20282;-46
2023/08/07 07:48:27;;;;;;;0.57;0.30;;;;;;;12.86;66.29;97166.00;6209686;28;20228;-49
2023/08/07 07:51:30;;;;;;;0.43;0.20;;;;;;;12.93;65.80;97181.78;6206706;28;20243;-47
2023/08/07 07:54:32;;;;;;;0.40;0.40;;;;;;;13.06;64.08;97170.53;6207403;28;20232;-48
2023/08/07 07:57:35;;;;;;;0.70;0.30;;;;;;;13.17;63.86;97207.69;6208433;28;20228;-45
2023/08/07 08:00:37;;;;;;;0.20;0.20;;;;;;;13.19;66.18;97199.38;6209190;28;20239;-47
2023/08/07 08:03:39;;;;;;;3.07;0.50;;;;;;;13.11;65.09;97187.38;6204535;28;20259;-48
2023/08/07 08:06:42;;;;;;;0.33;0.33;;;;;;;13.18;67.24;97184.41;6201428;28;20226;-48
2023/08/07 08:09:44;;;;;;;1.43;0.30;;;;;;;13.23;67.62;97187.09;6206503;28;20236;-46
2023/08/07 08:12:46;;;;;;;1.37;0.30;;;;;;;13.16;68.31;97184.69;6206507;28;20692;-46
2023/08/07 08:15:49;;;;;;;0.43;0.30;;;;;;;13.31;65.22;97199.94;6211683;28;20653;-45
2023/08/07 08:18:51;;;;;;;1.90;0.40;;;;;;;13.28;67.66;97197.00;6206781;28;20236;-45
2023/08/07 08:21:54;;;;;;;0.30;0.30;;;;;;;13.43;66.03;97197.75;6206668;28;20225;-44
2023/08/07 08:24:56;;;;;;;3.33;0.50;;;;;;;13.39;67.79;97201.25;6206438;28;20236;-49
2023/08/07 08:27:59;;;;;;;0.47;0.40;;;;;;;13.63;64.78;97196.88;6204275;28;20753;-49
2023/08/07 08:31:02;;;;;;;1.23;0.50;;;;;;;13.71;69.46;97192.84;6206268;28;20242;-47
2023/08/07 08:34:04;;;;;;;0.40;0.40;;;;;;;13.87;64.88;97236.44;6191543;28;20232;-46
2023/08/07 08:37:07;;;;;;;2.53;0.43;;;;;;;14.03;63.83;97224.56;6181612;28;20360;-49
2023/08/07 08:40:12;;;;;;;2.50;0.63;;;;;;;14.27;68.57;97230.09;6205644;28;20236;-46
2023/08/07 08:43:15;;;;;;;0.83;0.40;;;;;;;14.37;66.00;97197.06;6187549;28;20248;-47
2023/08/07 08:46:20;;;;;;;0.77;0.57;;;;;;;14.45;62.30;97247.41;6205383;28;20232;-52
2023/08/07 08:49:30;;;;;;;0.70;0.43;;;;;;;14.26;65.25;97219.66;6205605;28;20729;-48
2023/08/07 08:52:35;;;;;;;0.20;0.20;;;;;;;13.95;65.85;97211.78;6200884;28;20378;-49
2023/08/07 08:55:37;;;;;;;0.30;0.30;;;;;;;13.87;68.24;97247.13;6205209;28;20229;-47
2023/08/07 08:58:40;;;;;;;0.30;0.30;;;;;;;13.61;66.20;97208.97;6206587;28;20327;-50
2023/08/07 09:01:44;;;;;;;0.40;0.40;;;;;;;13.45;69.06;97250.19;6203722;28;20224;-48
2023/08/07 09:04:46;;;;;;;0.90;0.40;;;;;;;13.26;67.62;97258.78;6206160;28;20315;-48
2023/08/07 09:07:49;;;;;;;0.50;0.40;;;;;;;13.04;69.70;97250.19;6205311;28;20236;-51
2023/08/07 09:10:52;;;;;;;0.93;0.50;;;;;;;12.88;72.46;97236.84;6204770;28;20322;-48
2023/08/07 09:13:55;;;;;;;3.40;0.60;;;;;;;12.80;73.41;97256.06;6200872;28;20232;-49
2023/08/07 09:17:01;;;;;;;0.30;0.30;;;;;;;12.91;71.82;97295.13;6200230;28;20244;-47
2023/08/07 09:20:04;;;;;;;1.13;0.50;;;;;;;12.82;69.78;97304.75;6205371;28;20232;-46
2023/08/07 09:23:07;;;;;;;0.47;0.47;;;;;;;12.85;72.46;97301.53;6204229;28;20228;-49
2023/08/07 09:26:10;;;;;;;2.60;0.40;;;;;;;12.81;72.93;97278.28;6204024;28;20240;-51
2023/08/07 09:29:13;;;;;;;0.40;0.40;;;;;;;12.72;71.55;97274.53;6202656;28;20228;-47
2023/08/07 09:32:15;;;;;;;1.67;0.77;;;;;;;12.57;74.31;97262.75;6187053;28;20734;-46
2023/08/07 09:35:21;;;;;;;1.70;0.63;;;;;;;12.59;74.61;97289.19;6203756;28;20835;-47
2023/08/07 09:38:27;;;;;;;1.17;0.87;;;;;;;12.40;75.77;97295.00;6197905;28;20816;-49
2023/08/07 09:41:31;;;;;;;0.50;0.50;;;;;;;12.48;74.54;97298.25;6204144;28;20236;-48
2023/08/07 09:44:39;;;;;;;0.90;0.70;;;;;;;12.35;77.79;97315.56;6203772;28;20232;-48
2023/08/07 09:47:42;;;;;;;0.50;0.50;;;;;;;12.35;78.82;97307.56;6204826;28;20719;-45
2023/08/07 09:50:46;;;;;;;1.20;0.63;;;;;;;12.29;77.62;97320.09;6202747;28;20232;-44
2023/08/07 09:53:49;;;;;;;0.60;0.60;;;;;;;12.37;76.51;97345.50;6190539;28;20546;-46
2023/08/07 09:56:55;;;;;;;0.57;0.57;;;;;;;12.21;76.81;97306.44;6205067;28;20263;-48
2023/08/07 10:00:00;;;;;;;0.60;0.40;;;;;;;12.17;78.58;97332.03;6201630;28;20719;-47
2023/08/07 10:03:13;;;;;;;1.00;0.57;;;;;;;12.07;81.55;97330.16;6202348;28;20226;-48
2023/08/07 10:06:18;;;;;;;0.90;0.70;;;;;;;12.05;82.61;97348.28;6203068;28;20384;-48
2023/08/07 10:09:21;;;;;;;0.60;0.60;;;;;;;12.20;79.31;97342.22;6203672;28;20259;-49
2023/08/07 10:12:24;;;;;;;0.73;0.50;;;;;;;12.07;79.19;97343.50;6203155;28;20699;-48
2023/08/07 10:15:27;;;;;;;0.60;0.40;;;;;;;12.08;80.28;97332.56;6185549;28;20656;-46
2023/08/07 10:18:30;;;;;;;0.50;0.47;;;;;;;12.08;79.68;97361.13;6205031;28;20870;-48
2023/08/07 10:21:38;;;;;;;0.80;0.60;;;;;;;12.17;79.95;97348.06;6203792;28;20231;-47
2023/08/07 10:24:43;;;;;;;1.90;0.50;;;;;;;12.20;81.09;97360.91;6202746;28;20237;-49
2023/08/07 10:27:47;;;;;;;0.50;0.50;;;;;;;12.17;81.73;97358.75;6202160;28;20286;-46
2023/08/07 10:30:51;;;;;;;0.57;0.50;;;;;;;12.25;82.82;97371.63;6207092;28;20225;-48
2023/08/07 10:33:53;;;;;;;0.70;0.70;;;;;;;12.39;83.70;97373.56;6206288;28;20227;-50
2023/08/07 10:36:56;;;;;;;0.73;0.63;;;;;;;12.40;79.67;97363.66;6203546;28;20236;-46
2023/08/07 10:40:03;;;;;;;0.67;0.60;;;;;;;12.07;82.50;97380.88;6203354;28;20307;-47
2023/08/07 10:43:06;;;;;;;0.60;0.60;;;;;;;12.16;84.64;97368.63;6202678;28;20228;-46
2023/08/07 10:46:12;;;;;;;0.60;0.60;;;;;;;12.10;82.54;97385.69;6203299;28;20230;-47
2023/08/07 10:49:38;;;;;;;1.47;0.60;;;;;;;11.99;81.44;97371.47;6208073;28;20216;-47
2023/08/07 10:52:40;;;;;;;0.70;0.57;;;;;;;11.97;85.06;97392.31;6194494;28;20248;-48
2023/08/07 10:55:45;;;;;;;1.53;0.60;;;;;;;11.91;81.89;97421.88;6202362;28;20244;-46
2023/08/07 10:58:53;;;;;;;0.80;0.70;;;;;;;11.76;85.92;97383.31;6202874;28;20240;-45
2023/08/07 11:01:55;;;;;;;1.53;0.80;;;;;;;11.59;87.09;97364.78;6203530;28;21152;-45
2023/08/07 11:04:58;;;;;;;0.87;0.57;;;;;;;11.60;89.25;97377.06;6204016;28;20386;-47
2023/08/07 11:08:00;;;;;;;0.83;0.77;;;;;;;11.57;88.49;97398.91;6199053;28;20227;-48
2023/08/07 11:11:07;;;;;;;2.20;0.70;;;;;;;11.52;87.62;97380.19;6204514;28;20648;-46
2023/08/07 11:14:12;;;;;;;0.80;0.80;;;;;;;11.77;84.67;97392.13;6201957;28;20242;-49
2023/08/07 11:17:16;;;;;;;0.97;0.90;;;;;;;11.66;88.27;97393.91;6207785;28;20236;-48
2023/08/07 11:20:19;;;;;;;0.60;0.60;;;;;;;11.52;88.19;97382.84;6186281;28;20236;-47
2023/08/07 11:23:27;;;;;;;1.07;0.60;;;;;;;11.34;89.39;97386.72;6212085;28;20900;-42
2023/08/07 11:26:29;;;;;;;1.70;0.80;;;;;;;11.52;89.30;97411.41;6207863;28;20240;-39
2023/08/07 11:29:33;;;;;;;1.13;0.90;;;;;;;11.60;89.90;97416.28;6203428;28;20232;-39
2023/08/07 11:32:36;;;;;;;1.50;0.97;;;;;;;11.63;89.09;97411.25;6207918;28;20265;-39
2023/08/07 11:35:43;;;;;;;1.00;0.70;;;;;;;11.57;91.32;97425.59;6211830;28;20322;-40
2023/08/07 11:38:45;;;;;;;1.83;0.80;;;;;;;11.62;89.57;97422.16;6203550;28;20373;-40
2023/08/07 11:41:52;;;;;;;0.97;0.73;;;;;;;11.65;89.05;97445.66;6182865;28;20235;-41
2023/08/07 11:44:54;;;;;;;0.90;0.80;;;;;;;11.79;91.06;97452.19;6207169;28;20237;-41
2023/08/07 11:47:59;;;;;;;2.20;0.93;;;;;;;11.87;88.75;97456.28;6208149;28;20232;-42
2023/08/07 11:51:03;;;;;;;1.60;0.80;;;;;;;11.66;90.05;97443.81;6211232;28;20630;-44
2023/08/07 11:54:14;;;;;;;1.13;0.70;;;;;;;11.86;86.33;97450.13;6185213;28;20259;-42
2023/08/07 11:57:18;;;;;;;1.00;0.90;;;;;;;11.79;89.01;97460.19;6183063;28;20224;-40
2023/08/07 12:00:20;;;;;;;1.00;0.73;;;;;;;11.76;90.31;97455.34;6197031;28;20632;-41
2023/08/07 12:03:31;;;;;;;1.63;0.90;;;;;;;11.88;87.78;97461.38;6182629;28;20236;-41
2023/08/07 12:06:43;;;;;;;1.97;1.03;;;;;;;11.85;90.28;97458.41;6186468;28;20233;-40
2023/08/07 12:09:47;;;;;;;2.33;1.00;;;;;;;11.78;90.17;97461.25;6197571;28;20236;-41
2023/08/07 12:12:50;;;;;;;2.37;1.33;;;;;;;11.68;91.67;97433.69;6182675;28;20232;-40
2023/08/07 12:15:57;;;;;;;2.20;1.10;;;;;;;11.79;89.38;97465.53;6172674;28;20323;-40
2023/08/07 12:19:02;;;;;;;1.13;1.03;;;;;;;11.91;89.40;97454.72;6182185;28;20317;-40
2023/08/07 12:22:08;;;;;;;1.80;0.87;;;;;;;11.76;92.27;97462.56;6183781;28;20237;-41
2023/08/07 12:25:11;;;;;;;1.73;1.40;;;;;;;11.89;92.57;97480.88;6181792;28;20236;-40
2023/08/07 12:28:15;;;;;;;1.57;0.90;;;;;;;12.01;93.43;97473.47;6182545;28;20338;-44
2023/08/07 12:31:18;;;;;;;2.57;1.20;;;;;;;11.94;90.07;97478.22;6182354;28;20303;-41
2023/08/07 12:34:21;;;;;;;1.30;1.20;;;;;;;11.95;91.27;97474.50;6184181;28;20802;-42
2023/08/07 12:37:27;;;;;;;1.60;1.30;;;;;;;12.10;92.05;97463.13;6186493;28;20257;-43
2023/08/07 12:40:31;;;;;;;3.10;1.40;;;;;;;12.16;94.79;97467.44;6179283;28;20237;-43
2023/08/07 12:43:37;;;;;;;1.60;1.33;;;;;;;12.23;93.91;97484.06;6181685;28;20252;-43
2023/08/07 12:46:40;;;;;;;1.57;1.10;;;;;;;12.25;91.82;97471.22;6181981;28;20232;-41
2023/08/07 12:49:45;;;;;;;1.60;1.50;;;;;;;12.55;93.88;97477.81;6181912;28;20236;-43
2023/08/07 12:52:49;;;;;;;2.40;1.17;;;;;;;12.75;91.51;97499.31;6187014;28;20233;-41
2023/08/07 12:55:52;;;;;;;1.37;1.27;;;;;;;12.77;91.53;97499.06;6183372;28;20287;-41
2023/08/07 12:58:54;;;;;;;3.27;1.30;;;;;;;12.65;90.93;97510.75;6184524;28;20287;-40
2023/08/07 13:01:57;;;;;;;3.00;1.20;;;;;;;12.47;91.15;97489.00;6179694;28;20695;-40
2023/08/07 13:04:59;;;;;;;1.90;1.07;;;;;;;12.48;92.27;97496.75;6182879;28;20225;-40
2023/08/07 13:08:02;;;;;;;1.60;1.23;;;;;;;12.49;89.68;97490.34;6179568;28;20324;-39
2023/08/07 13:11:04;;;;;;;3.47;1.30;;;;;;;12.55;85.84;97480.50;6180392;28;20229;-39
2023/08/07 13:14:06;;;;;;;2.53;1.50;;;;;;;12.65;90.95;97481.34;6177703;28;20240;-40
2023/08/07 13:17:09;;;;;;;1.93;1.13;;;;;;;12.72;88.03;97475.78;6187569;28;20316;-39
2023/08/07 13:20:13;;;;;;;1.17;1.07;;;;;;;12.78;90.13;97471.25;6181356;28;20241;-41
2023/08/07 13:23:16;;;;;;;1.80;1.30;;;;;;;12.82;89.24;97462.47;6174749;28;20305;-41
2023/08/07 13:26:18;;;;;;;1.47;1.30;;;;;;;12.98;88.61;97487.38;6180700;28;20228;-40
2023/08/07 13:29:21;;;;;;;1.43;1.30;;;;;;;13.06;90.04;97472.72;6178398;28;20236;-41
2023/08/07 13:32:25;;;;;;;1.53;1.40;;;;;;;13.20;87.73;97500.56;6181460;28;20229;-40
2023/08/07 13:35:28;;;;;;;1.57;1.20;;;;;;;13.28;88.15;97489.38;6181238;28;20233;-40
2023/08/07 13:38:30;;;;;;;2.13;1.20;;;;;;;13.36;83.48;97472.81;6182958;28;20225;-40
2023/08/07 13:41:32;;;;;;;3.17;1.30;;;;;;;13.10;84.85;97452.38;6177080;28;20612;-40
2023/08/07 13:44:35;;;;;;;1.23;1.13;;;;;;;13.20;87.21;97463.13;6184272;28;20323;-40
2023/08/07 13:47:37;;;;;;;3.87;1.30;;;;;;;13.28;83.65;97472.53;6181404;28;20231;-40
2023/08/07 13:50:41;;;;;;;1.43;1.27;;;;;;;13.52;83.75;97487.03;6180282;28;20228;-40
2023/08/07 13:53:44;;;;;;;3.87;1.30;;;;;;;13.51;82.58;97501.47;6189469;28;20235;-40
2023/08/07 13:56:47;;;;;;;2.77;1.30;;;;;;;13.62;81.03;97488.91;6203356;28;20228;-41
2023/08/07 13:59:50;;;;;;;1.17;1.00;;;;;;;13.73;82.48;97508.47;6203484;28;20232;-41
2023/08/07 14:02:53;;;;;;;3.10;1.30;;;;;;;13.84;76.22;97496.69;6203339;28;20298;-39
2023/08/07 14:05:56;;;;;;;2.37;1.63;;;;;;;13.71;79.96;97489.19;6203017;28;20426;-40
2023/08/07 14:08:59;;;;;;;1.90;1.03;;;;;;;13.75;80.76;97509.81;6203454;28;20272;-42
2023/08/07 14:12:02;;;;;;;2.87;1.23;;;;;;;13.75;79.61;97501.00;6185436;28;20263;-41
2023/08/07 14:15:05;;;;;;;3.13;1.40;;;;;;;13.68;81.66;97517.28;6203047;28;20236;-40
2023/08/07 14:18:11;;;;;;;1.30;1.20;;;;;;;13.71;79.36;97532.84;6199003;28;20208;-40
2023/08/07 14:21:14;;;;;;;2.40;1.30;;;;;;;13.61;77.49;97527.47;6202463;28;20236;-39
2023/08/07 14:24:17;;;;;;;1.63;1.20;;;;;;;13.57;78.70;97527.19;6203390;28;20243;-40